createdAt,value
2019-01-24T00:00:18.503Z,-2.20
2019-01-24T00:02:47.031Z,-2.20
2019-01-24T00:05:15.590Z,-2.20
2019-01-24T00:07:44.447Z,-2.10
2019-01-24T00:10:13.148Z,-2.10
2019-01-24T00:12:41.633Z,-2.10
2019-01-24T00:15:10.931Z,-2.10
2019-01-24T00:17:39.411Z,-2.10
2019-01-24T00:20:10.954Z,-2.10
2019-01-24T00:22:39.488Z,-2.10
2019-01-24T00:25:10.114Z,-2.10
2019-01-24T00:27:38.643Z,-2.10
2019-01-24T00:30:12.988Z,-2.10
2019-01-24T00:32:41.595Z,-2.10
2019-01-24T00:35:10.895Z,-2.10
2019-01-24T00:37:39.844Z,-2.00
2019-01-24T00:40:16.924Z,-2.10
2019-01-24T00:42:45.451Z,-2.10
2019-01-24T00:45:14.359Z,-2.20
2019-01-24T00:47:43.179Z,-2.10
2019-01-24T00:50:13.779Z,-2.10
2019-01-24T00:52:42.338Z,-2.10
2019-01-24T00:55:13.242Z,-2.10
2019-01-24T00:57:41.996Z,-2.10
2019-01-24T01:00:16.288Z,-2.10
2019-01-24T01:02:45.239Z,-2.00
2019-01-24T01:05:14.441Z,-2.10
2019-01-24T01:07:43.211Z,-2.00
2019-01-24T01:10:13.011Z,-2.00
2019-01-24T01:12:41.611Z,-2.00
2019-01-24T01:15:13.212Z,-2.00
2019-01-24T01:17:41.767Z,-2.00
2019-01-24T01:20:15.855Z,-2.00
2019-01-24T01:22:44.342Z,-2.00
2019-01-24T01:25:13.543Z,-2.00
2019-01-24T01:27:42.170Z,-2.00
2019-01-24T01:30:20.032Z,-2.00
2019-01-24T01:32:48.759Z,-2.00
2019-01-24T01:35:17.985Z,-2.00
2019-01-24T01:37:46.690Z,-2.00
2019-01-24T01:40:17.839Z,-2.00
2019-01-24T01:42:46.367Z,-2.00
2019-01-24T01:45:17.463Z,-2.10
2019-01-24T01:47:45.992Z,-2.10
2019-01-24T01:50:22.538Z,-2.00
2019-01-24T01:52:51.210Z,-2.10
2019-01-24T01:55:20.735Z,-2.10
2019-01-24T01:57:49.612Z,-2.10
2019-01-24T02:00:20.540Z,-2.10
2019-01-24T02:02:49.434Z,-2.10
2019-01-24T02:05:17.996Z,-2.10
2019-01-24T02:07:46.668Z,-2.10
2019-01-24T02:10:21.018Z,-2.10
2019-01-24T02:12:49.719Z,-2.10
2019-01-24T02:15:18.615Z,-2.10
2019-01-24T02:17:47.271Z,-2.10
2019-01-24T02:20:20.636Z,-2.10
2019-01-24T02:22:49.600Z,-2.10
2019-01-24T02:25:18.298Z,-2.10
2019-01-24T02:27:46.895Z,-2.10
2019-01-24T02:30:21.086Z,-2.10
2019-01-24T02:32:49.877Z,-2.10
2019-01-24T02:35:18.507Z,-2.10
2019-01-24T02:37:47.185Z,-2.10
2019-01-24T02:40:15.984Z,-2.10
2019-01-24T02:42:44.519Z,-2.10
2019-01-24T02:45:21.279Z,-2.10
2019-01-24T02:47:49.888Z,-2.10
2019-01-24T02:50:20.930Z,-2.10
2019-01-24T02:52:49.555Z,-2.10
2019-01-24T02:55:18.082Z,-2.10
2019-01-24T02:57:46.686Z,-2.00
2019-01-24T03:00:20.479Z,-2.00
2019-01-24T03:02:49.583Z,-2.00
2019-01-24T03:05:20.170Z,-2.00
2019-01-24T03:07:49.767Z,-2.00
2019-01-24T03:10:18.538Z,-2.00
2019-01-24T03:12:47.243Z,-2.00
2019-01-24T03:15:17.770Z,-2.00
2019-01-24T03:17:46.305Z,-2.00
2019-01-24T03:20:16.812Z,-2.10
2019-01-24T03:22:45.834Z,-2.10
2019-01-24T03:25:16.304Z,-2.10
2019-01-24T03:27:44.925Z,-2.10
2019-01-24T03:30:19.062Z,-2.10
2019-01-24T03:32:47.853Z,-2.10
2019-01-24T03:35:19.273Z,-2.10
2019-01-24T03:37:47.980Z,-2.10
2019-01-24T03:40:16.875Z,-2.10
2019-01-24T03:42:45.517Z,-2.10
2019-01-24T03:45:16.102Z,-2.10
2019-01-24T03:47:44.833Z,-2.10
2019-01-24T03:50:18.155Z,-2.00
2019-01-24T03:52:46.856Z,-2.10
2019-01-24T03:55:17.263Z,-2.10
2019-01-24T03:57:45.908Z,-2.10
2019-01-24T04:00:17.017Z,-2.10
2019-01-24T04:02:45.566Z,-2.10
2019-01-24T04:05:14.778Z,-2.00
2019-01-24T04:07:43.321Z,-2.00
2019-01-24T04:10:14.913Z,-2.10
2019-01-24T04:12:43.562Z,-2.00
2019-01-24T04:15:18.027Z,-2.10
2019-01-24T04:17:46.599Z,-2.10
2019-01-24T04:20:16.714Z,-2.10
2019-01-24T04:22:45.209Z,-2.10
2019-01-24T04:25:13.822Z,-2.10
2019-01-24T04:27:42.468Z,-2.10
2019-01-24T04:30:14.125Z,-2.10
2019-01-24T04:32:42.769Z,-2.10
2019-01-24T04:35:19.439Z,-2.00
2019-01-24T04:37:42.413Z,-2.00
2019-01-24T04:40:13.621Z,-2.00
2019-01-24T04:42:42.278Z,-2.00
2019-01-24T04:45:12.985Z,-2.00
2019-01-24T04:47:41.532Z,-2.00
2019-01-24T04:50:12.822Z,-2.00
2019-01-24T04:52:41.528Z,-2.10
2019-01-24T04:55:12.215Z,-2.10
2019-01-24T04:57:41.000Z,-2.20
2019-01-24T05:00:21.461Z,-2.10
2019-01-24T05:02:50.105Z,-2.10
2019-01-24T05:05:19.316Z,-2.10
2019-01-24T05:07:48.327Z,-2.10
2019-01-24T05:10:17.304Z,-2.10
2019-01-24T05:12:45.908Z,-2.10
2019-01-24T05:15:15.345Z,-2.10
2019-01-24T05:17:44.396Z,-2.10
2019-01-24T05:20:14.293Z,-2.10
2019-01-24T05:22:43.205Z,-2.00
2019-01-24T05:25:16.675Z,-2.00
2019-01-24T05:27:45.291Z,-2.00
2019-01-24T05:30:19.870Z,-2.00
2019-01-24T05:32:48.607Z,-2.00
2019-01-24T05:35:17.180Z,-2.10
2019-01-24T05:37:45.725Z,-2.10
2019-01-24T05:40:14.338Z,-2.10
2019-01-24T05:42:42.914Z,-2.10
2019-01-24T05:45:13.405Z,-2.10
2019-01-24T05:47:42.045Z,-2.10
2019-01-24T05:50:14.293Z,-2.10
2019-01-24T05:52:42.850Z,-2.10
2019-01-24T05:55:13.233Z,-2.10
2019-01-24T05:57:42.125Z,-2.10
2019-01-24T06:00:17.665Z,-2.10
2019-01-24T06:02:46.277Z,-2.10
2019-01-24T06:05:15.802Z,-2.10
2019-01-24T06:07:44.745Z,-2.10
2019-01-24T06:10:15.120Z,-2.10
2019-01-24T06:12:43.617Z,-2.10
2019-01-24T06:15:18.620Z,-2.10
2019-01-24T06:17:47.416Z,-2.10
2019-01-24T06:20:16.220Z,-2.10
2019-01-24T06:22:44.757Z,-2.10
2019-01-24T06:25:16.716Z,-2.00
2019-01-24T06:27:45.348Z,-2.00
2019-01-24T06:30:17.160Z,-2.00
2019-01-24T06:32:45.693Z,-2.00
2019-01-24T06:35:14.245Z,-2.00
2019-01-24T06:37:43.112Z,-2.00
2019-01-24T06:40:14.254Z,-2.00
2019-01-24T06:42:42.902Z,-2.00
2019-01-24T06:45:14.657Z,-2.00
2019-01-24T06:47:43.302Z,-2.00
2019-01-24T06:50:14.157Z,-2.10
2019-01-24T06:52:43.110Z,-2.10
2019-01-24T06:55:15.020Z,-2.00
2019-01-24T06:57:43.964Z,-2.00
2019-01-24T07:00:15.564Z,-2.10
2019-01-24T07:02:44.276Z,-2.10
2019-01-24T07:05:13.380Z,-2.00
2019-01-24T07:07:41.919Z,-2.00
2019-01-24T07:10:13.177Z,-2.00
2019-01-24T07:12:41.884Z,-2.10
2019-01-24T07:15:13.572Z,-2.00
2019-01-24T07:17:42.136Z,-2.00
2019-01-24T07:20:13.405Z,-2.00
2019-01-24T07:22:42.121Z,-2.00
2019-01-24T07:25:13.911Z,-2.00
2019-01-24T07:27:42.485Z,-2.00
2019-01-24T07:30:13.869Z,-2.00
2019-01-24T07:32:42.411Z,-2.00
2019-01-24T07:35:13.703Z,-2.00
2019-01-24T07:37:42.412Z,-2.00
2019-01-24T07:40:15.733Z,-2.00
2019-01-24T07:42:44.345Z,-2.00
2019-01-24T07:45:24.977Z,-2.00
2019-01-24T07:47:53.452Z,-2.00
2019-01-24T07:50:22.030Z,-2.00
2019-01-24T07:52:50.708Z,-2.00
2019-01-24T07:55:19.244Z,-2.00
2019-01-24T07:57:47.877Z,-2.00
2019-01-24T08:00:22.265Z,-2.00
2019-01-24T08:02:51.097Z,-2.00
2019-01-24T08:05:19.641Z,-2.00
2019-01-24T08:07:48.277Z,-2.00
2019-01-24T08:10:21.965Z,-2.00
2019-01-24T08:12:50.538Z,-2.00
2019-01-24T08:15:20.925Z,-2.00
2019-01-24T08:17:50.016Z,-2.00
2019-01-24T08:20:26.518Z,-2.00
2019-01-24T08:22:55.174Z,-2.00
2019-01-24T08:25:24.066Z,-1.90
2019-01-24T08:27:52.785Z,-1.90
2019-01-24T08:30:29.985Z,-1.90
2019-01-24T08:32:58.833Z,-1.90
2019-01-24T08:35:27.525Z,-1.90
2019-01-24T08:37:56.145Z,-1.80
2019-01-24T08:40:25.464Z,-1.80
2019-01-24T08:42:54.657Z,-1.80
2019-01-24T08:45:23.315Z,-1.80
2019-01-24T08:47:51.881Z,-1.80
2019-01-24T08:50:22.328Z,-1.80
2019-01-24T08:52:51.217Z,-1.80
2019-01-24T08:55:23.182Z,-1.80
2019-01-24T08:57:51.753Z,-1.80
2019-01-24T09:00:21.445Z,-1.70
2019-01-24T09:02:51.140Z,-1.70
2019-01-24T09:05:20.022Z,-1.60
2019-01-24T09:07:48.769Z,-1.60
2019-01-24T09:10:26.819Z,-1.60
2019-01-24T09:12:55.457Z,-1.50
2019-01-24T09:15:24.207Z,-1.50
2019-01-24T09:17:52.820Z,-1.40
2019-01-24T09:20:21.795Z,-1.30
2019-01-24T09:22:55.131Z,-1.30
2019-01-24T09:25:21.341Z,-1.30
2019-01-24T09:27:49.894Z,-1.20
2019-01-24T09:30:23.524Z,-1.20
2019-01-24T09:32:52.021Z,-1.20
2019-01-24T09:35:20.496Z,-1.10
2019-01-24T09:37:49.061Z,-1.00
2019-01-24T09:40:19.453Z,-1.00
2019-01-24T09:42:48.184Z,-0.90
2019-01-24T09:45:19.004Z,-0.90
2019-01-24T09:47:47.802Z,-0.90
2019-01-24T09:50:22.223Z,-0.90
2019-01-24T09:52:50.936Z,-0.80
2019-01-24T09:55:19.509Z,-0.80
2019-01-24T09:57:48.250Z,-0.70
2019-01-24T10:00:19.065Z,-0.60
2019-01-24T10:02:47.898Z,-0.50
2019-01-24T10:05:17.009Z,-0.40
2019-01-24T10:07:45.658Z,-0.30
2019-01-24T10:10:16.818Z,-0.20
2019-01-24T10:12:45.393Z,-0.20
2019-01-24T10:15:16.192Z,-0.10
2019-01-24T10:17:45.757Z,0.00
2019-01-24T10:20:19.489Z,0.10
2019-01-24T10:22:48.100Z,0.10
2019-01-24T10:25:28.417Z,0.10
2019-01-24T10:27:57.488Z,0.10
2019-01-24T10:30:26.533Z,0.00
2019-01-24T10:32:55.514Z,0.10
2019-01-24T10:35:24.401Z,0.10
2019-01-24T10:37:53.117Z,0.10
2019-01-24T10:40:24.470Z,0.10
2019-01-24T10:42:53.510Z,0.10
2019-01-24T10:45:22.628Z,0.20
2019-01-24T10:47:53.105Z,0.30
2019-01-24T10:50:24.021Z,0.40
2019-01-24T10:52:52.703Z,0.40
2019-01-24T10:55:23.212Z,0.50
2019-01-24T10:57:52.625Z,0.60
2019-01-24T11:00:26.657Z,0.70
2019-01-24T11:02:55.801Z,0.80
2019-01-24T11:05:24.472Z,0.90
2019-01-24T11:07:53.111Z,1.00
2019-01-24T11:10:22.196Z,1.10
2019-01-24T11:12:50.903Z,1.20
2019-01-24T11:15:22.495Z,1.30
2019-01-24T11:17:51.272Z,1.30
2019-01-24T11:20:20.863Z,1.30
2019-01-24T11:22:50.573Z,1.30
2019-01-24T11:25:21.845Z,1.20
2019-01-24T11:27:50.549Z,1.20
2019-01-24T11:30:21.561Z,1.10
2019-01-24T11:32:50.278Z,1.10
2019-01-24T11:35:21.272Z,1.10
2019-01-24T11:37:49.812Z,1.20
2019-01-24T11:40:19.721Z,1.20
2019-01-24T11:42:48.620Z,1.30
2019-01-24T11:45:19.967Z,1.30
2019-01-24T11:47:48.587Z,1.30
2019-01-24T11:50:18.665Z,1.40
2019-01-24T11:52:47.385Z,1.40
2019-01-24T11:55:18.175Z,1.40
2019-01-24T11:57:46.914Z,1.40
2019-01-24T12:00:28.626Z,1.50
2019-01-24T12:02:57.258Z,1.70
2019-01-24T12:05:25.860Z,1.90
2019-01-24T12:07:54.421Z,2.00
2019-01-24T12:10:27.875Z,2.00
2019-01-24T12:12:56.721Z,2.00
2019-01-24T12:15:28.077Z,1.90
2019-01-24T12:17:56.624Z,1.80
2019-01-24T12:20:26.124Z,1.50
2019-01-24T12:22:54.859Z,1.40
2019-01-24T12:25:24.012Z,1.30
2019-01-24T12:27:52.907Z,1.20
2019-01-24T12:30:26.921Z,1.10
2019-01-24T12:32:55.832Z,0.90
2019-01-24T12:35:24.368Z,0.80
2019-01-24T12:37:53.184Z,0.60
2019-01-24T12:40:21.857Z,0.50
2019-01-24T12:42:50.866Z,0.50
2019-01-24T12:45:30.501Z,0.40
2019-01-24T12:47:59.141Z,0.30
2019-01-24T12:50:27.682Z,0.30
2019-01-24T12:52:56.305Z,0.20
2019-01-24T12:55:25.017Z,0.10
2019-01-24T12:57:53.740Z,0.00
2019-01-24T13:00:24.625Z,-0.10
2019-01-24T13:02:53.437Z,-0.20
2019-01-24T13:05:22.327Z,-0.20
2019-01-24T13:07:50.888Z,-0.30
2019-01-24T13:10:21.801Z,-0.40
2019-01-24T13:12:51.092Z,-0.40
2019-01-24T13:15:22.037Z,-0.50
2019-01-24T13:17:50.581Z,-0.60
2019-01-24T13:20:19.229Z,-0.70
2019-01-24T13:22:47.774Z,-0.80
2019-01-24T13:25:18.898Z,-0.90
2019-01-24T13:27:47.828Z,-1.00
2019-01-24T13:30:18.701Z,-1.00
2019-01-24T13:32:47.206Z,-1.00
2019-01-24T13:35:15.889Z,-1.00
2019-01-24T13:37:44.536Z,-1.00
2019-01-24T13:40:21.496Z,-1.10
2019-01-24T13:42:50.208Z,-1.10
2019-01-24T13:45:24.177Z,-0.90
2019-01-24T13:47:52.833Z,-0.90
2019-01-24T13:50:21.545Z,-0.80
2019-01-24T13:52:50.090Z,-0.70
2019-01-24T13:55:18.666Z,-0.70
2019-01-24T13:57:47.529Z,-0.70
2019-01-24T14:00:21.936Z,-0.70
2019-01-24T14:02:53.520Z,-0.70
2019-01-24T14:05:22.454Z,-0.60
2019-01-24T14:07:50.929Z,-0.60
2019-01-24T14:10:19.841Z,-0.60
2019-01-24T14:12:48.318Z,-0.70
2019-01-24T14:15:18.705Z,-0.70
2019-01-24T14:17:47.345Z,-0.70
2019-01-24T14:20:18.808Z,-0.70
2019-01-24T14:22:47.489Z,-0.70
2019-01-24T14:25:20.869Z,-0.60
2019-01-24T14:27:49.387Z,-0.70
2019-01-24T14:30:25.468Z,-0.60
2019-01-24T14:32:54.042Z,-0.60
2019-01-24T14:35:22.732Z,-0.70
2019-01-24T14:37:51.602Z,-0.70
2019-01-24T14:40:20.417Z,-0.80
2019-01-24T14:42:49.341Z,-0.90
2019-01-24T14:45:21.220Z,-1.00
2019-01-24T14:47:49.712Z,-1.10
2019-01-24T14:50:23.826Z,-1.10
2019-01-24T14:52:52.612Z,-1.10
2019-01-24T14:55:21.183Z,-1.20
2019-01-24T14:57:49.868Z,-1.20
2019-01-24T15:00:33.448Z,-1.10
2019-01-24T15:03:02.486Z,-1.10
2019-01-24T15:05:31.201Z,-1.10
2019-01-24T15:07:59.746Z,-1.00
2019-01-24T15:10:28.796Z,-1.00
2019-01-24T15:12:57.841Z,-0.90
2019-01-24T15:15:26.452Z,-0.90
2019-01-24T15:17:55.017Z,-0.80
2019-01-24T15:20:23.732Z,-0.90
2019-01-24T15:22:52.287Z,-0.80
2019-01-24T15:25:22.897Z,-0.80
2019-01-24T15:27:51.453Z,-0.80
2019-01-24T15:30:23.055Z,-0.70
2019-01-24T15:32:51.661Z,-0.70
2019-01-24T15:35:20.356Z,-0.70
2019-01-24T15:37:54.292Z,-0.70
2019-01-24T15:40:22.256Z,-0.70
2019-01-24T15:42:50.902Z,-0.70
2019-01-24T15:45:19.727Z,-0.70
2019-01-24T15:47:48.718Z,-0.70
2019-01-24T15:50:20.110Z,-0.70
2019-01-24T15:52:49.105Z,-0.70
2019-01-24T15:55:17.810Z,-0.70
2019-01-24T15:57:47.178Z,-0.70
2019-01-24T16:00:27.667Z,-0.70
2019-01-24T16:02:56.461Z,-0.70
2019-01-24T16:05:25.106Z,-0.70
2019-01-24T16:07:53.661Z,-0.70
2019-01-24T16:10:23.461Z,-0.70
2019-01-24T16:12:52.106Z,-0.70
2019-01-24T16:15:26.496Z,-0.70
2019-01-24T16:17:55.116Z,-0.70
2019-01-24T16:20:28.449Z,-0.70
2019-01-24T16:22:57.129Z,-0.70
2019-01-24T16:25:28.456Z,-0.70
2019-01-24T16:27:57.028Z,-0.80
2019-01-24T16:30:27.749Z,-0.80
2019-01-24T16:32:56.966Z,-0.80
2019-01-24T16:35:26.053Z,-0.80
2019-01-24T16:37:54.638Z,-0.80
2019-01-24T16:40:25.618Z,-0.90
2019-01-24T16:42:54.329Z,-1.00
2019-01-24T16:45:25.229Z,-1.00
2019-01-24T16:47:53.863Z,-1.00
2019-01-24T16:50:24.178Z,-1.00
2019-01-24T16:52:53.060Z,-1.10
2019-01-24T16:55:21.872Z,-1.00
2019-01-24T16:57:51.472Z,-1.10
2019-01-24T17:00:23.053Z,-1.10
2019-01-24T17:02:51.516Z,-1.10
2019-01-24T17:05:20.132Z,-1.10
2019-01-24T17:07:48.716Z,-1.20
2019-01-24T17:10:22.108Z,-1.20
2019-01-24T17:12:50.826Z,-1.20
2019-01-24T17:15:19.853Z,-1.30
2019-01-24T17:17:48.493Z,-1.30
2019-01-24T17:20:22.629Z,-1.40
2019-01-24T17:22:51.451Z,-1.30
2019-01-24T17:25:21.108Z,-1.40
2019-01-24T17:27:49.861Z,-1.40
2019-01-24T17:30:24.036Z,-1.40
2019-01-24T17:32:52.887Z,-1.40
2019-01-24T17:35:21.580Z,-1.50
2019-01-24T17:37:50.305Z,-1.50
2019-01-24T17:40:24.100Z,-1.50
2019-01-24T17:42:52.936Z,-1.60
2019-01-24T17:45:21.416Z,-1.60
2019-01-24T17:47:50.625Z,-1.70
2019-01-24T17:50:19.292Z,-1.80
2019-01-24T17:52:47.909Z,-1.70
2019-01-24T17:55:19.451Z,-1.70
2019-01-24T17:57:48.221Z,-1.80
2019-01-24T18:00:22.174Z,-1.80
2019-01-24T18:02:50.750Z,-1.90
2019-01-24T18:05:19.392Z,-1.80
2019-01-24T18:07:48.017Z,-1.80
2019-01-24T18:10:25.034Z,-1.80
2019-01-24T18:12:53.718Z,-1.80
2019-01-24T18:15:24.614Z,-1.80
2019-01-24T18:17:53.759Z,-1.80
2019-01-24T18:20:25.014Z,-1.90
2019-01-24T18:22:53.524Z,-1.90
2019-01-24T18:25:22.074Z,-1.90
2019-01-24T18:27:50.642Z,-1.90
2019-01-24T18:30:24.801Z,-1.90
2019-01-24T18:32:53.411Z,-1.90
2019-01-24T18:35:22.244Z,-1.90
2019-01-24T18:37:50.908Z,-1.90
2019-01-24T18:40:22.388Z,-1.90
2019-01-24T18:42:51.396Z,-1.90
2019-01-24T18:45:23.113Z,-1.90
2019-01-24T18:47:51.738Z,-2.00
2019-01-24T18:50:21.863Z,-2.00
2019-01-24T18:52:50.741Z,-2.00
2019-01-24T18:55:19.366Z,-2.00
2019-01-24T18:57:48.089Z,-1.90
2019-01-24T19:00:23.685Z,-2.00
2019-01-24T19:02:52.304Z,-2.00
2019-01-24T19:05:20.804Z,-2.00
2019-01-24T19:07:49.416Z,-2.00
2019-01-24T19:10:18.100Z,-2.00
2019-01-24T19:12:46.753Z,-2.00
2019-01-24T19:15:20.813Z,-2.10
2019-01-24T19:17:49.917Z,-2.10
2019-01-24T19:20:18.461Z,-2.10
2019-01-24T19:22:47.287Z,-2.20
2019-01-24T19:25:18.769Z,-2.10
2019-01-24T19:27:47.732Z,-2.10
2019-01-24T19:30:27.893Z,-2.10
2019-01-24T19:32:57.133Z,-2.10
2019-01-24T19:35:25.675Z,-2.10
2019-01-24T19:37:54.322Z,-2.20
2019-01-24T19:40:25.477Z,-2.20
2019-01-24T19:42:54.016Z,-2.20
2019-01-24T19:45:27.273Z,-2.20
2019-01-24T19:47:55.889Z,-2.20
2019-01-24T19:50:29.037Z,-2.20
2019-01-24T19:52:58.926Z,-2.20
2019-01-24T19:55:27.646Z,-2.20
2019-01-24T19:57:57.157Z,-2.20
2019-01-24T20:00:27.678Z,-2.20
2019-01-24T20:02:56.621Z,-2.20
2019-01-24T20:05:25.401Z,-2.20
2019-01-24T20:07:54.559Z,-2.20
2019-01-24T20:10:25.501Z,-2.20
2019-01-24T20:12:54.141Z,-2.10
2019-01-24T20:15:24.534Z,-2.20
2019-01-24T20:17:53.214Z,-2.20
2019-01-24T20:20:21.920Z,-2.20
2019-01-24T20:22:51.037Z,-2.30
2019-01-24T20:25:28.377Z,-2.30
2019-01-24T20:27:56.984Z,-2.30
2019-01-24T20:30:27.288Z,-2.30
2019-01-24T20:32:56.625Z,-2.30
2019-01-24T20:35:33.537Z,-2.30
2019-01-24T20:38:02.649Z,-2.30
2019-01-24T20:40:31.284Z,-2.40
2019-01-24T20:42:59.829Z,-2.30
2019-01-24T20:45:29.487Z,-2.30
2019-01-24T20:47:58.197Z,-2.40
2019-01-24T20:50:26.773Z,-2.40
2019-01-24T20:52:55.357Z,-2.40
2019-01-24T20:55:23.925Z,-2.40
2019-01-24T20:57:52.560Z,-2.40
2019-01-24T21:00:23.610Z,-2.40
2019-01-24T21:02:53.096Z,-2.40
2019-01-24T21:05:23.105Z,-2.30
2019-01-24T21:07:51.988Z,-2.30
2019-01-24T21:10:26.405Z,-2.40
2019-01-24T21:12:55.085Z,-2.40
2019-01-24T21:15:23.769Z,-2.40
2019-01-24T21:17:52.409Z,-2.30
2019-01-24T21:20:23.468Z,-2.40
2019-01-24T21:22:52.520Z,-2.30
2019-01-24T21:25:23.105Z,-2.40
2019-01-24T21:27:51.891Z,-2.40
2019-01-24T21:30:28.888Z,-2.40
2019-01-24T21:32:57.808Z,-2.40
2019-01-24T21:35:26.354Z,-2.40
2019-01-24T21:37:54.996Z,-2.40
2019-01-24T21:40:24.881Z,-2.40
2019-01-24T21:42:53.761Z,-2.40
2019-01-24T21:45:28.090Z,-2.40
2019-01-24T21:47:56.705Z,-2.40
2019-01-24T21:50:27.720Z,-2.50
2019-01-24T21:52:56.931Z,-2.50
2019-01-24T21:55:25.937Z,-2.50
2019-01-24T21:57:54.581Z,-2.50
2019-01-24T22:00:25.262Z,-2.60
2019-01-24T22:02:53.851Z,-2.60
2019-01-24T22:05:22.634Z,-2.60
2019-01-24T22:07:51.370Z,-2.60
2019-01-24T22:10:25.429Z,-2.60
2019-01-24T22:12:54.126Z,-2.70
2019-01-24T22:15:30.447Z,-2.70
2019-01-24T22:17:59.660Z,-2.70
2019-01-24T22:20:28.554Z,-2.70
2019-01-24T22:22:57.550Z,-2.70
2019-01-24T22:25:31.046Z,-2.70
2019-01-24T22:28:00.041Z,-2.70
2019-01-24T22:30:33.137Z,-2.70
2019-01-24T22:33:02.046Z,-2.70
2019-01-24T22:35:30.589Z,-2.60
2019-01-24T22:37:59.157Z,-2.60
2019-01-24T22:40:27.801Z,-2.60
2019-01-24T22:42:56.589Z,-2.60
2019-01-24T22:45:26.132Z,-2.60
2019-01-24T22:47:54.676Z,-2.50
2019-01-24T22:50:23.425Z,-2.50
2019-01-24T22:52:52.428Z,-2.50
2019-01-24T22:55:21.064Z,-2.60
2019-01-24T22:57:50.013Z,-2.60
2019-01-24T23:00:47.674Z,-2.60
2019-01-24T23:03:19.388Z,-2.60
2019-01-24T23:05:47.967Z,-2.70
2019-01-24T23:08:16.656Z,-2.70
2019-01-24T23:10:45.145Z,-2.70
2019-01-24T23:13:13.713Z,-2.70
2019-01-24T23:15:42.189Z,-2.70
2019-01-24T23:18:11.000Z,-2.70
2019-01-24T23:20:39.463Z,-2.70
2019-01-24T23:23:08.168Z,-2.80
2019-01-24T23:25:36.673Z,-2.70
2019-01-24T23:28:06.080Z,-2.80
2019-01-24T23:30:35.324Z,-2.80
2019-01-24T23:33:04.206Z,-2.70
2019-01-24T23:35:32.748Z,-2.80
2019-01-24T23:38:01.317Z,-2.80
2019-01-24T23:40:30.230Z,-2.80
2019-01-24T23:42:58.892Z,-2.80
2019-01-24T23:45:29.156Z,-2.70
2019-01-24T23:47:57.981Z,-2.70
2019-01-24T23:50:26.476Z,-2.70
2019-01-24T23:52:55.301Z,-2.70
2019-01-24T23:55:23.853Z,-2.70
2019-01-24T23:57:52.772Z,-2.70
